Time;durP1;ratioP1;P1;durP2;ratioP2;P2;SDS_P1;SDS_P2;PMS_P1;PMS_P2;Temp;Humidity;BMP_temperature;BMP_pressure;BME280_temperature;BME280_humidity;BME280_pressure;Samples;Min_cycle;Max_cycle;Signal;HPM_P1;HPM_P2
2021/10/27 00:00:32;;;;;;;10.73;4.90;;;15.50;99.90;;;;;;6161995;23;20150;-94
2021/10/27 00:02:58;;;;;;;14.60;5.07;;;15.50;99.90;;;;;;6162450;23;20188;-83
2021/10/27 00:05:23;;;;;;;11.53;5.80;;;15.50;99.90;;;;;;6162963;23;20221;-84
2021/10/27 00:07:50;;;;;;;11.23;5.63;;;15.50;99.90;;;;;;6162099;23;20151;-81
2021/10/27 00:10:16;;;;;;;13.87;5.00;;;15.60;99.90;;;;;;6162435;23;20668;-81
2021/10/27 00:12:42;;;;;;;11.27;5.57;;;15.60;99.90;;;;;;6188365;23;20205;-81
2021/10/27 00:15:10;;;;;;;14.20;6.23;;;15.60;99.90;;;;;;6162043;23;20146;-81
2021/10/27 00:17:36;;;;;;;10.73;5.77;;;15.60;99.90;;;;;;6162123;23;20182;-81
2021/10/27 00:20:04;;;;;;;12.53;5.67;;;15.40;99.90;;;;;;6162398;23;20667;-83
2021/10/27 00:22:29;;;;;;;14.97;6.50;;;15.30;99.90;;;;;;6161850;23;20259;-82
2021/10/27 00:24:55;;;;;;;13.60;6.13;;;15.40;99.90;;;;;;6162493;23;20628;-83
2021/10/27 00:27:21;;;;;;;11.93;5.97;;;15.40;99.90;;;;;;6162682;23;20493;-83
2021/10/27 00:29:47;;;;;;;13.10;6.47;;;15.40;99.90;;;;;;6162628;23;20144;-94
2021/10/27 00:32:12;;;;;;;12.80;5.90;;;15.50;99.90;;;;;;6163571;23;20587;-94
2021/10/27 00:34:38;;;;;;;10.37;6.00;;;15.40;99.90;;;;;;6163116;23;20152;-83
2021/10/27 00:37:05;;;;;;;14.30;6.37;;;15.30;99.90;;;;;;6163370;23;20159;-93
2021/10/27 00:39:31;;;;;;;12.43;5.80;;;15.40;99.90;;;;;;6163371;23;20203;-92
2021/10/27 00:41:57;;;;;;;14.87;6.00;;;15.40;99.90;;;;;;6162773;23;20181;-90
2021/10/27 00:44:25;;;;;;;10.47;5.93;;;15.40;99.90;;;;;;6162568;23;20610;-93
2021/10/27 00:47:05;;;;;;;11.53;5.83;;;15.50;99.90;;;;;;6162980;23;20257;-87
2021/10/27 00:49:34;;;;;;;15.20;6.50;;;15.50;99.90;;;;;;6163006;23;20493;-94
2021/10/27 00:52:01;;;;;;;13.60;5.43;;;15.40;99.90;;;;;;6162992;23;20159;-93
2021/10/27 00:54:29;;;;;;;11.90;5.77;;;15.30;99.90;;;;;;6162878;23;20148;-90
2021/10/27 00:56:56;;;;;;;14.03;6.00;;;15.30;99.90;;;;;;6162932;23;20597;-93
2021/10/27 00:59:25;;;;;;;11.27;6.40;;;15.40;99.90;;;;;;6162259;23;20142;-92
2021/10/27 01:01:53;;;;;;;13.83;6.33;;;15.40;99.90;;;;;;6161349;23;20182;-93
2021/10/27 01:04:20;;;;;;;13.67;6.07;;;15.30;99.90;;;;;;6161292;23;20572;-94
2021/10/27 01:06:46;;;;;;;15.27;6.37;;;15.30;99.90;;;;;;6160203;23;20494;-93
2021/10/27 01:09:12;;;;;;;15.80;6.43;;;15.20;99.90;;;;;;6161223;23;20147;-83
2021/10/27 01:11:38;;;;;;;14.73;6.27;;;15.30;99.90;;;;;;6161348;23;20208;-83
2021/10/27 01:14:05;;;;;;;12.93;6.30;;;15.20;99.90;;;;;;6160555;23;20233;-93
2021/10/27 01:16:30;;;;;;;11.40;6.80;;;15.10;99.90;;;;;;6161631;23;20240;-93
2021/10/27 01:18:56;;;;;;;12.87;6.00;;;15.00;99.90;;;;;;6161736;23;20270;-93
2021/10/27 01:21:29;;;;;;;12.50;5.97;;;15.10;99.90;;;;;;6161662;23;20213;-91
2021/10/27 01:23:54;;;;;;;15.03;6.30;;;15.10;99.90;;;;;;6161028;23;20189;-93
2021/10/27 01:26:20;;;;;;;10.93;6.13;;;15.10;99.90;;;;;;6161384;23;20651;-93
2021/10/27 01:28:46;;;;;;;14.20;6.80;;;15.00;99.90;;;;;;6160716;23;20192;-94
2021/10/27 01:31:13;;;;;;;10.30;6.17;;;15.00;99.90;;;;;;6187376;23;20133;-91
2021/10/27 01:33:39;;;;;;;11.27;5.93;;;15.10;99.90;;;;;;6161054;23;20163;-91
2021/10/27 01:36:06;;;;;;;14.67;6.37;;;15.10;99.90;;;;;;6162223;23;20157;-93
2021/10/27 01:38:33;;;;;;;14.17;6.43;;;15.10;99.90;;;;;;6168857;23;20157;-89
2021/10/27 01:40:59;;;;;;;17.57;6.97;;;14.90;99.90;;;;;;6170581;23;20699;-93
2021/10/27 01:43:25;;;;;;;12.87;6.87;;;14.80;99.90;;;;;;6161440;23;20224;-83
2021/10/27 01:45:51;;;;;;;15.57;7.07;;;14.70;99.90;;;;;;6160384;23;20161;-82
2021/10/27 01:48:17;;;;;;;14.70;7.23;;;14.70;99.90;;;;;;6186751;23;20348;-82
2021/10/27 01:50:43;;;;;;;17.27;6.50;;;14.80;99.90;;;;;;6160594;23;20158;-86
2021/10/27 01:53:11;;;;;;;11.93;7.10;;;14.80;99.90;;;;;;6186783;23;20147;-93
2021/10/27 01:55:37;;;;;;;15.60;6.67;;;14.80;99.90;;;;;;6187063;23;20209;-87
2021/10/27 01:58:03;;;;;;;17.00;7.77;;;14.70;99.90;;;;;;6161753;23;20456;-93
2021/10/27 02:00:28;;;;;;;13.97;7.40;;;14.60;99.90;;;;;;6180085;23;20139;-91
2021/10/27 02:02:54;;;;;;;12.77;7.00;;;14.60;99.90;;;;;;6181771;23;20237;-88
2021/10/27 02:05:20;;;;;;;16.57;7.47;;;14.60;99.90;;;;;;6175282;23;20148;-89
2021/10/27 02:07:46;;;;;;;18.20;7.30;;;14.70;99.90;;;;;;6176437;23;20131;-92
2021/10/27 02:10:12;;;;;;;16.43;6.70;;;14.60;99.90;;;;;;6173485;23;20185;-94
2021/10/27 02:12:40;;;;;;;11.83;7.00;;;14.50;99.90;;;;;;6186350;23;20255;-90
2021/10/27 02:15:07;;;;;;;14.23;6.77;;;14.50;99.90;;;;;;6160148;23;20171;-83
2021/10/27 02:17:33;;;;;;;11.53;6.43;;;14.50;99.90;;;;;;6160165;23;20165;-86
2021/10/27 02:19:58;;;;;;;16.70;6.83;;;14.40;99.90;;;;;;6160312;23;20159;-81
2021/10/27 02:22:24;;;;;;;13.13;6.73;;;14.40;99.90;;;;;;6160317;23;20189;-81
2021/10/27 02:24:50;;;;;;;14.03;7.10;;;14.40;99.90;;;;;;6160143;23;20228;-81
2021/10/27 02:27:16;;;;;;;11.03;6.20;;;14.40;99.90;;;;;;6159875;23;20490;-81
2021/10/27 02:29:41;;;;;;;13.87;6.80;;;14.40;99.90;;;;;;6160144;23;20151;-93
2021/10/27 02:32:07;;;;;;;13.80;6.80;;;14.50;99.90;;;;;;6160165;23;20145;-93
2021/10/27 02:34:33;;;;;;;12.90;6.60;;;14.60;99.90;;;;;;6160229;23;20160;-93
2021/10/27 02:36:59;;;;;;;10.97;6.43;;;14.70;99.90;;;;;;6159788;23;20156;-92
2021/10/27 02:39:25;;;;;;;12.50;5.93;;;14.70;99.90;;;;;;6160132;23;20154;-93
2021/10/27 02:41:51;;;;;;;13.17;5.80;;;14.60;99.90;;;;;;6159873;23;20213;-92
2021/10/27 02:44:18;;;;;;;17.93;7.10;;;14.50;99.90;;;;;;6159911;23;20656;-92
2021/10/27 02:46:44;;;;;;;9.63;5.73;;;14.60;99.90;;;;;;6159785;23;20175;-81
2021/10/27 02:49:10;;;;;;;11.10;6.30;;;14.60;99.90;;;;;;6160168;23;20150;-82
2021/10/27 02:51:37;;;;;;;10.37;5.17;;;14.70;99.90;;;;;;6161648;23;20142;-81
2021/10/27 02:54:02;;;;;;;10.87;5.90;;;14.70;99.90;;;;;;6161285;23;20219;-81
2021/10/27 02:56:28;;;;;;;13.23;5.53;;;14.80;99.90;;;;;;6160075;23;20146;-81
2021/10/27 02:58:54;;;;;;;10.23;5.67;;;14.90;99.90;;;;;;6159381;23;20208;-81
2021/10/27 03:01:19;;;;;;;14.90;5.70;;;15.00;99.90;;;;;;6159469;23;20200;-81
2021/10/27 03:03:46;;;;;;;10.53;5.63;;;15.00;99.90;;;;;;6159714;23;20614;-81
2021/10/27 03:06:12;;;;;;;14.57;6.30;;;15.00;99.90;;;;;;6159490;23;20175;-91
2021/10/27 03:08:38;;;;;;;13.27;6.00;;;15.00;99.90;;;;;;6159325;23;20153;-93
2021/10/27 03:11:04;;;;;;;9.20;5.47;;;15.10;99.90;;;;;;6185655;23;20468;-91
2021/10/27 03:13:30;;;;;;;8.83;5.73;;;15.10;99.90;;;;;;6185965;23;20220;-93
2021/10/27 03:15:56;;;;;;;9.83;5.40;;;15.10;99.90;;;;;;6159781;23;20159;-92
2021/10/27 03:18:23;;;;;;;11.70;6.00;;;15.10;99.90;;;;;;6159664;23;20538;-81
2021/10/27 03:20:48;;;;;;;13.13;6.80;;;15.10;99.90;;;;;;6159797;23;20178;-81
2021/10/27 03:23:14;;;;;;;9.13;5.63;;;15.10;99.90;;;;;;6158991;23;20636;-81
2021/10/27 03:25:40;;;;;;;12.70;5.80;;;15.10;99.90;;;;;;6159350;23;20451;-81
2021/10/27 03:28:07;;;;;;;9.63;5.60;;;15.00;99.90;;;;;;6159486;23;20551;-82
2021/10/27 03:30:32;;;;;;;14.87;6.53;;;15.10;99.90;;;;;;6186136;23;20137;-81
2021/10/27 03:32:58;;;;;;;9.87;5.53;;;15.10;99.90;;;;;;6159225;23;20545;-81
2021/10/27 03:35:25;;;;;;;12.17;5.97;;;14.90;99.90;;;;;;6159435;23;20180;-81
2021/10/27 03:37:51;;;;;;;9.37;5.87;;;14.90;99.90;;;;;;6159137;23;20194;-81
2021/10/27 03:40:17;;;;;;;13.47;5.97;;;14.90;99.90;;;;;;6159545;23;20153;-81
2021/10/27 03:42:44;;;;;;;9.70;5.33;;;14.90;99.90;;;;;;6158808;23;20189;-92
2021/10/27 03:45:09;;;;;;;10.17;5.10;;;14.90;99.90;;;;;;6185637;23;20129;-93
2021/10/27 03:47:36;;;;;;;8.50;5.53;;;14.90;99.90;;;;;;6158940;23;20194;-81
2021/10/27 03:50:03;;;;;;;14.40;5.93;;;15.00;99.90;;;;;;6159503;23;20162;-81
2021/10/27 03:52:29;;;;;;;12.20;6.03;;;14.90;99.90;;;;;;6159023;23;20154;-81
2021/10/27 03:54:55;;;;;;;14.50;6.03;;;14.90;99.90;;;;;;6159107;23;20219;-81
2021/10/27 03:57:20;;;;;;;11.57;5.10;;;14.90;99.90;;;;;;6159413;23;20658;-81
2021/10/27 03:59:46;;;;;;;9.70;5.47;;;14.80;99.90;;;;;;6159239;23;20209;-82
2021/10/27 04:02:12;;;;;;;12.13;5.50;;;14.80;99.90;;;;;;6159197;23;20184;-81
2021/10/27 04:04:37;;;;;;;11.10;5.73;;;14.80;99.90;;;;;;6158843;23;20238;-81
2021/10/27 04:07:03;;;;;;;11.47;6.00;;;14.80;99.90;;;;;;6158604;23;20632;-81
2021/10/27 04:09:29;;;;;;;10.70;6.10;;;14.80;99.90;;;;;;6159058;23;20224;-81
2021/10/27 04:11:55;;;;;;;12.13;6.47;;;14.90;99.90;;;;;;6158886;23;20179;-81
2021/10/27 04:14:21;;;;;;;13.60;6.03;;;14.80;99.90;;;;;;6158833;23;20150;-81
2021/10/27 04:16:47;;;;;;;9.87;6.60;;;14.90;99.90;;;;;;6158825;23;20164;-82
2021/10/27 04:19:12;;;;;;;13.13;6.40;;;14.80;99.90;;;;;;6158906;23;20142;-92
2021/10/27 04:21:38;;;;;;;13.17;6.10;;;14.90;99.90;;;;;;6158790;23;20187;-81
2021/10/27 04:24:04;;;;;;;13.33;6.77;;;14.90;99.90;;;;;;6185061;23;20146;-82
2021/10/27 04:26:30;;;;;;;13.90;6.67;;;15.00;99.90;;;;;;6185135;23;20592;-82
2021/10/27 04:28:55;;;;;;;12.43;6.63;;;15.10;99.90;;;;;;6158923;23;20143;-82
2021/10/27 04:31:21;;;;;;;11.60;6.27;;;15.10;99.90;;;;;;6158980;23;20227;-82
2021/10/27 04:33:47;;;;;;;13.97;6.30;;;15.10;99.90;;;;;;6159365;23;20230;-90
2021/10/27 04:36:15;;;;;;;10.80;5.87;;;15.10;99.90;;;;;;6160801;23;20151;-91
2021/10/27 04:38:41;;;;;;;12.83;6.03;;;15.10;99.90;;;;;;6161867;23;20145;-89
2021/10/27 04:41:06;;;;;;;11.87;6.97;;;15.00;99.90;;;;;;6161926;23;20152;-92
2021/10/27 04:43:32;;;;;;;12.23;6.60;;;15.00;99.90;;;;;;6160935;23;20210;-92
2021/10/27 04:45:58;;;;;;;13.30;6.37;;;15.00;99.90;;;;;;6187511;23;20618;-90
2021/10/27 04:48:24;;;;;;;13.40;6.63;;;15.00;99.90;;;;;;6161488;23;20166;-91
2021/10/27 04:50:50;;;;;;;13.83;6.53;;;14.90;99.90;;;;;;6161338;23;20150;-84
2021/10/27 04:53:22;;;;;;;13.37;6.30;;;14.90;99.90;;;;;;6161508;23;20166;-81
2021/10/27 04:55:48;;;;;;;15.80;6.27;;;14.90;99.90;;;;;;6161588;23;20477;-91
2021/10/27 04:58:15;;;;;;;10.07;5.77;;;14.90;99.90;;;;;;6161772;23;20159;-92
2021/10/27 05:00:41;;;;;;;15.03;5.87;;;15.00;99.90;;;;;;6161256;23;20159;-91
2021/10/27 05:03:07;;;;;;;12.40;7.13;;;15.10;99.90;;;;;;6161043;23;20213;-91
2021/10/27 05:05:40;;;;;;;13.13;6.47;;;14.90;99.90;;;;;;6161314;23;20200;-92
2021/10/27 05:08:05;;;;;;;13.10;6.63;;;15.00;99.90;;;;;;6161275;23;20153;-93
2021/10/27 05:10:31;;;;;;;16.63;6.60;;;14.90;99.90;;;;;;6161637;23;20196;-93
2021/10/27 05:12:56;;;;;;;15.23;6.33;;;14.80;99.90;;;;;;6161070;23;20577;-92
2021/10/27 05:15:22;;;;;;;13.03;6.43;;;14.80;99.90;;;;;;6161503;23;20154;-92
2021/10/27 05:17:48;;;;;;;13.53;5.67;;;14.80;99.90;;;;;;6161463;23;20159;-93
2021/10/27 05:20:14;;;;;;;16.80;6.47;;;14.80;99.90;;;;;;6160672;23;20161;-92
2021/10/27 05:22:40;;;;;;;13.10;5.80;;;14.80;99.90;;;;;;6161258;23;20209;-84
2021/10/27 05:25:06;;;;;;;19.00;6.23;;;15.00;99.90;;;;;;6161140;23;20549;-81
2021/10/27 05:27:34;;;;;;;10.13;6.07;;;15.00;99.90;;;;;;6161309;23;20158;-82
2021/10/27 05:29:59;;;;;;;11.77;6.23;;;15.00;99.90;;;;;;6187807;23;20135;-88
2021/10/27 05:32:25;;;;;;;14.83;6.50;;;14.90;99.90;;;;;;6161638;23;20581;-92
2021/10/27 05:34:50;;;;;;;14.97;6.40;;;14.90;99.90;;;;;;6160587;23;20153;-92
2021/10/27 05:37:16;;;;;;;15.83;6.70;;;14.90;99.90;;;;;;6160721;23;20214;-93
2021/10/27 05:39:42;;;;;;;12.73;5.83;;;15.00;99.90;;;;;;6160675;23;20161;-92
2021/10/27 05:42:11;;;;;;;13.57;6.80;;;15.10;99.90;;;;;;6187021;23;20198;-92
2021/10/27 05:44:37;;;;;;;15.37;7.00;;;15.20;99.90;;;;;;6160609;23;20183;-90
2021/10/27 05:47:04;;;;;;;9.07;6.23;;;15.10;99.90;;;;;;6160614;23;20201;-91
2021/10/27 05:49:46;;;;;;;12.87;6.50;;;15.10;99.90;;;;;;6173306;23;20179;-89
2021/10/27 05:57:22;;;;;;;12.90;6.77;;;15.10;99.90;;;;;;6186903;23;20482;-88
2021/10/27 05:59:51;;;;;;;16.10;7.33;;;14.90;99.90;;;;;;6161190;23;20486;-95
2021/10/27 06:02:17;;;;;;;13.20;6.53;;;14.70;99.90;;;;;;6169606;23;20186;-93
2021/10/27 06:04:43;;;;;;;12.43;7.73;;;14.50;99.90;;;;;;6173760;23;20593;-82
2021/10/27 06:07:09;;;;;;;13.87;6.20;;;14.50;99.90;;;;;;6192511;23;20467;-81
2021/10/27 06:09:37;;;;;;;12.70;7.03;;;14.60;99.90;;;;;;6162743;23;20152;-82
2021/10/27 06:12:05;;;;;;;16.93;7.40;;;14.60;99.90;;;;;;6172294;23;20267;-82
2021/10/27 06:14:32;;;;;;;17.13;7.77;;;14.60;99.90;;;;;;6183285;23;20621;-81
2021/10/27 06:16:57;;;;;;;13.23;7.27;;;14.50;99.90;;;;;;6164065;23;20196;-81
2021/10/27 06:19:23;;;;;;;15.80;7.47;;;14.40;99.90;;;;;;6164155;23;20581;-85
2021/10/27 06:21:50;;;;;;;17.00;8.77;;;14.40;99.90;;;;;;6190521;23;20175;-86
2021/10/27 06:24:15;;;;;;;16.93;7.63;;;14.40;99.90;;;;;;6164447;23;20231;-84
2021/10/27 06:26:43;;;;;;;17.23;7.90;;;14.30;99.90;;;;;;6203596;23;20144;-84
2021/10/27 06:29:13;;;;;;;16.00;8.03;;;14.20;99.90;;;;;;6166570;23;20161;-82
2021/10/27 06:31:49;;;;;;;18.93;8.67;;;14.20;99.90;;;;;;6173541;23;20148;-80
2021/10/27 08:05:41;;;;;;;20.03;12.47;;;14.80;99.90;;;;;;6178967;23;21125;-82
2021/10/27 08:08:13;;;;;;;18.80;12.10;;;14.80;99.90;;;;;;6129300;23;20247;-81
2021/10/27 08:10:39;;;;;;;21.40;12.93;;;14.90;99.90;;;;;;6129586;23;20553;-81
2021/10/27 08:13:05;;;;;;;25.20;13.57;;;15.00;99.90;;;;;;6130680;23;20181;-80
2021/10/27 08:15:32;;;;;;;24.43;12.73;;;14.70;99.90;;;;;;6131329;23;20146;-80
2021/10/27 08:17:58;;;;;;;21.50;13.53;;;14.60;99.90;;;;;;6130840;23;20166;-80
2021/10/27 08:20:26;;;;;;;25.83;14.53;;;14.50;99.90;;;;;;6131375;23;20160;-83
2021/10/27 08:22:55;;;;;;;24.70;13.67;;;14.50;99.90;;;;;;6131466;23;20207;-80
2021/10/27 08:28:00;;;;;;;23.97;13.57;;;14.40;99.90;;;;;;6167301;23;20147;-80
2021/10/27 08:30:35;;;;;;;24.60;14.03;;;14.40;99.90;;;;;;6157312;23;20135;-80
2021/10/27 08:33:05;;;;;;;22.70;13.57;;;14.40;99.90;;;;;;6131102;23;20153;-80
2021/10/27 08:35:32;;;;;;;23.40;12.90;;;14.40;99.90;;;;;;6131216;23;20159;-81
2021/10/27 08:37:58;;;;;;;22.73;13.90;;;14.40;99.90;;;;;;6131325;23;20611;-80
2021/10/27 08:40:25;;;;;;;21.50;13.43;;;14.50;99.90;;;;;;6131577;23;20152;-86
2021/10/27 08:42:53;;;;;;;21.23;12.77;;;14.50;99.90;;;;;;6131118;23;20522;-81
2021/10/27 08:45:19;;;;;;;24.40;13.67;;;14.60;99.90;;;;;;6131636;23;20153;-83
2021/10/27 08:47:48;;;;;;;20.90;13.13;;;14.50;99.90;;;;;;6131772;23;20624;-83
2021/10/27 08:50:15;;;;;;;20.47;12.33;;;14.50;99.90;;;;;;6131487;23;20195;-84
2021/10/27 08:52:41;;;;;;;21.67;12.67;;;14.60;99.90;;;;;;6131448;23;20594;-83
2021/10/27 08:55:10;;;;;;;23.90;12.20;;;14.70;99.90;;;;;;6131402;23;20163;-85
2021/10/27 08:57:36;;;;;;;21.27;12.17;;;14.80;99.90;;;;;;6131260;23;20148;-86
2021/10/27 09:00:27;;;;;;;20.20;11.73;;;14.90;99.90;;;;;;6131890;23;20165;-83
2021/10/27 09:05:37;;;;;;;17.27;11.63;;;15.10;99.90;;;;;;6167542;23;20138;-84
2021/10/27 09:56:29;;;;;;;22.40;10.83;;;16.00;99.90;;;;;;6155973;23;20238;-83
2021/10/27 10:04:03;;;;;;;16.27;9.37;;;16.00;99.90;;;;;;6186204;23;20165;-82
2021/10/27 10:04:42;;;;;;;13.80;9.23;;;16.00;99.90;;;;;;6185991;23;20148;-82
2021/10/27 10:07:10;;;;;;;15.10;9.63;;;16.10;99.90;;;;;;6159673;23;20167;-82
2021/10/27 10:09:39;;;;;;;12.93;9.00;;;16.40;99.90;;;;;;6185820;23;20193;-82
2021/10/27 10:12:06;;;;;;;11.67;8.30;;;16.50;99.90;;;;;;6160061;23;20169;-80
2021/10/27 10:14:32;;;;;;;17.53;8.13;;;16.70;99.90;;;;;;6159150;23;20160;-80
2021/10/27 10:17:04;;;;;;;15.43;9.00;;;16.90;99.90;;;;;;6185976;23;20162;-80
2021/10/27 10:19:36;;;;;;;18.07;8.00;;;17.10;99.90;;;;;;6159973;23;20175;-82
2021/10/27 10:22:04;;;;;;;14.17;7.53;;;16.90;99.90;;;;;;6159588;23;20484;-81
2021/10/27 10:24:36;;;;;;;16.83;7.90;;;17.00;99.90;;;;;;6159044;23;20574;-81
2021/10/27 10:27:08;;;;;;;13.60;7.43;;;17.00;99.90;;;;;;6159647;23;20242;-82
2021/10/27 10:32:22;;;;;;;11.03;6.57;;;17.80;99.90;;;;;;6186168;23;20573;-80
2021/10/27 10:34:53;;;;;;;10.87;6.10;;;18.30;99.90;;;;;;6159318;23;20155;-80
2021/10/27 10:37:47;;;;;;;8.30;5.43;;;18.90;99.90;;;;;;6159172;23;20235;-79
2021/10/27 10:45:49;;;;;;;7.50;4.70;;;20.80;99.90;;;;;;6196037;23;20146;-85
2021/10/27 11:24:57;;;;;;;6.73;2.73;;;24.00;96.00;;;;;;6185653;23;20147;-88
2021/10/27 11:37:14;;;;;;;6.83;2.90;;;24.60;95.10;;;;;;6159070;23;20149;-88
2021/10/27 11:41:21;;;;;;;4.47;2.67;;;25.80;92.80;;;;;;6196028;23;20155;-81
2021/10/27 11:44:11;;;;;;;6.27;2.60;;;25.60;93.00;;;;;;6159043;23;20176;-81
2021/10/27 11:46:55;;;;;;;4.20;2.73;;;25.20;93.50;;;;;;6159069;23;20143;-83
2021/10/27 11:49:25;;;;;;;7.63;2.77;;;25.30;93.40;;;;;;6158910;23;20646;-80
2021/10/27 11:51:58;;;;;;;4.60;2.43;;;25.30;93.80;;;;;;6185234;23;20455;-80
2021/10/27 11:54:26;;;;;;;9.50;2.77;;;25.80;92.90;;;;;;6185336;23;20608;-83
2021/10/27 11:56:53;;;;;;;5.17;2.30;;;25.80;92.40;;;;;;6159105;23;20172;-80
2021/10/27 11:59:19;;;;;;;5.67;2.93;;;25.20;92.70;;;;;;6185068;23;20137;-82
2021/10/27 12:01:51;;;;;;;9.73;3.10;;;24.20;93.90;;;;;;6185551;23;20144;-82
2021/10/27 12:04:17;;;;;;;4.30;2.30;;;23.80;94.70;;;;;;6158671;23;20164;-82
2021/10/27 12:07:01;;;;;;;4.93;2.30;;;23.90;94.70;;;;;;6158325;23;20196;-80
2021/10/27 12:10:00;;;;;;;6.07;2.40;;;23.90;94.30;;;;;;6185049;23;20578;-82
2021/10/27 12:12:56;;;;;;;5.40;2.40;;;24.40;93.60;;;;;;6159002;23;20175;-82
2021/10/27 12:18:13;;;;;;;6.07;2.23;;;24.00;94.10;;;;;;6195021;23;20159;-81
2021/10/27 12:20:44;;;;;;;3.80;2.00;;;24.80;93.30;;;;;;6158418;23;20171;-81
2021/10/27 12:23:21;;;;;;;7.27;2.93;;;25.00;93.00;;;;;;6185140;23;20173;-81
2021/10/27 12:25:49;;;;;;;3.03;2.37;;;25.60;92.50;;;;;;6158989;23;20293;-80
2021/10/27 12:28:29;;;;;;;3.87;2.43;;;25.30;92.30;;;;;;6158804;23;20152;-80
2021/10/27 12:30:55;;;;;;;4.07;2.20;;;25.50;92.10;;;;;;6158891;23;20152;-81
2021/10/27 12:33:41;;;;;;;6.10;2.57;;;26.20;91.60;;;;;;6158793;23;20148;-81
2021/10/27 12:36:24;;;;;;;4.33;2.43;;;26.80;91.00;;;;;;6158266;23;20214;-83
2021/10/27 12:39:13;;;;;;;16.47;10.67;;;26.70;90.80;;;;;;6185084;23;20473;-80
2021/10/27 12:41:39;;;;;;;6.57;3.10;;;26.40;91.10;;;;;;6158943;23;20164;-82
2021/10/27 12:44:25;;;;;;;5.40;3.23;;;26.60;90.80;;;;;;6158687;23;20149;-80
2021/10/27 12:47:40;;;;;;;10.03;5.57;;;26.60;90.50;;;;;;6158677;23;20162;-83
2021/10/27 12:50:18;;;;;;;6.00;2.37;;;26.10;90.80;;;;;;6181740;23;20245;-80
2021/10/27 12:53:02;;;;;;;6.73;2.93;;;26.80;90.40;;;;;;6158473;23;20155;-81
2021/10/27 12:55:33;;;;;;;5.03;2.70;;;27.40;89.40;;;;;;6158345;23;20179;-80
2021/10/27 12:58:09;;;;;;;6.03;2.60;;;26.80;90.10;;;;;;6159795;23;20152;-81
2021/10/27 13:05:55;;;;;;;7.30;2.90;;;25.90;90.60;;;;;;6195260;23;20163;-80
2021/10/27 13:08:46;;;;;;;8.40;3.17;;;25.60;91.10;;;;;;6160773;23;20164;-81
2021/10/27 13:17:29;;;;;;;7.40;3.10;;;25.30;91.10;;;;;;6193479;23;20148;-84
2021/10/27 13:30:19;;;;;;;7.53;3.27;;;20.90;97.00;;;;;;6187238;23;20154;-80
2021/10/27 13:32:56;;;;;;;4.73;2.67;;;20.60;97.60;;;;;;6161148;23;20620;-80
2021/10/27 13:35:22;;;;;;;7.13;2.87;;;20.70;97.70;;;;;;6186994;23;20137;-80
2021/10/27 13:37:49;;;;;;;7.77;2.97;;;20.20;98.40;;;;;;6161218;23;20487;-85
2021/10/27 13:40:15;;;;;;;6.17;3.03;;;20.00;99.10;;;;;;6160941;23;20220;-87
2021/10/27 13:45:46;;;;;;;5.80;2.63;;;20.20;99.10;;;;;;6187034;23;20201;-84
2021/10/27 13:59:07;;;;;;;7.23;2.67;;;19.80;99.90;;;;;;6187168;23;20156;-84
2021/10/27 14:07:07;;;;;;;7.57;3.20;;;19.70;99.90;;;;;;6186685;23;20685;-82
2021/10/27 14:09:45;;;;;;;7.27;2.30;;;19.60;99.90;;;;;;6160505;23;20159;-85
2021/10/27 14:14:52;;;;;;;4.90;2.30;;;19.40;99.90;;;;;;6187249;23;20207;-84
2021/10/27 14:20:19;;;;;;;6.03;2.50;;;19.60;99.90;;;;;;6186747;23;20225;-85
2021/10/27 14:47:38;;;;;;;4.50;2.10;;;19.00;99.90;;;;;;6124132;23;20181;-80
2021/10/27 15:20:35;;;;;;;5.93;2.67;;;20.40;99.90;;;;;;6185927;23;20222;-84
2021/10/27 15:23:22;;;;;;;5.73;3.30;;;20.70;99.90;;;;;;6159568;23;20645;-86
2021/10/27 15:33:57;;;;;;;7.87;3.50;;;19.90;99.90;;;;;;6198388;23;20148;-85
2021/10/27 15:45:11;;;;;;;5.93;4.03;;;19.00;99.90;;;;;;6156642;23;20164;-87
2021/10/27 15:52:51;;;;;;;9.33;4.50;;;18.40;99.90;;;;;;6190758;23;20150;-82
2021/10/27 15:55:17;;;;;;;11.73;4.57;;;18.20;99.90;;;;;;6174586;23;20171;-82
2021/10/27 15:57:42;;;;;;;6.97;4.37;;;18.10;99.90;;;;;;6173970;23;20167;-83
2021/10/27 16:00:09;;;;;;;8.53;4.87;;;18.00;99.90;;;;;;6169787;23;20150;-82
2021/10/27 16:02:34;;;;;;;8.57;4.73;;;17.90;99.90;;;;;;6167204;23;20195;-82
2021/10/27 16:05:00;;;;;;;8.00;4.57;;;17.80;99.90;;;;;;6165977;23;20150;-82
2021/10/27 16:07:28;;;;;;;7.10;4.50;;;17.60;99.90;;;;;;6165518;23;20183;-82
2021/10/27 16:10:00;;;;;;;11.10;4.70;;;17.60;99.90;;;;;;6160247;23;20190;-82
2021/10/27 16:12:28;;;;;;;7.40;4.00;;;17.50;99.90;;;;;;6158688;23;20182;-83
2021/10/27 16:14:54;;;;;;;9.97;5.00;;;17.60;99.90;;;;;;6159018;23;20161;-82
2021/10/27 16:17:21;;;;;;;6.93;4.13;;;17.50;99.90;;;;;;6159685;23;20175;-84
2021/10/27 16:19:47;;;;;;;9.37;4.87;;;17.40;99.90;;;;;;6159392;23;20236;-82
2021/10/27 16:22:13;;;;;;;9.90;4.50;;;17.40;99.90;;;;;;6159010;23;20627;-82
2021/10/27 16:24:39;;;;;;;7.03;4.73;;;17.40;99.90;;;;;;6158806;23;20155;-83
2021/10/27 16:27:07;;;;;;;7.80;4.73;;;17.40;99.90;;;;;;6158719;23;20171;-82
2021/10/27 16:29:32;;;;;;;9.20;4.27;;;17.20;99.90;;;;;;6158949;23;20591;-83
2021/10/27 16:31:58;;;;;;;9.93;4.80;;;17.00;99.90;;;;;;6159879;23;20140;-85
2021/10/27 16:34:23;;;;;;;8.83;4.37;;;16.80;99.90;;;;;;6161565;23;20228;-83
2021/10/27 16:36:49;;;;;;;13.37;4.33;;;16.70;99.90;;;;;;6161500;23;20187;-88
2021/10/27 16:39:17;;;;;;;8.57;4.63;;;16.70;99.90;;;;;;6161754;23;20189;-86
2021/10/27 16:41:44;;;;;;;8.27;4.57;;;16.70;99.90;;;;;;6161453;23;20207;-88
2021/10/27 16:44:10;;;;;;;8.03;4.93;;;16.70;99.90;;;;;;6187727;23;20141;-89
2021/10/27 16:46:36;;;;;;;8.07;4.10;;;16.60;99.90;;;;;;6188219;23;20139;-87
2021/10/27 16:49:01;;;;;;;5.93;4.03;;;16.70;99.90;;;;;;6162131;23;20145;-89
2021/10/27 16:51:27;;;;;;;6.80;4.60;;;16.70;99.90;;;;;;6161875;23;20155;-89
2021/10/27 16:53:53;;;;;;;8.60;4.43;;;16.50;99.90;;;;;;6161715;23;20158;-89
2021/10/27 16:56:19;;;;;;;12.07;4.80;;;16.50;99.90;;;;;;6161385;23;20152;-88
2021/10/27 16:58:45;;;;;;;6.60;4.70;;;16.40;99.90;;;;;;6161115;23;20614;-83
2021/10/27 17:01:11;;;;;;;9.20;5.33;;;16.40;99.90;;;;;;6160849;23;20569;-82
2021/10/27 17:03:37;;;;;;;10.33;5.00;;;16.40;99.90;;;;;;6160544;23;20191;-83
2021/10/27 17:06:03;;;;;;;12.67;5.47;;;16.30;99.90;;;;;;6160319;23;20167;-82
2021/10/27 17:08:28;;;;;;;7.63;4.97;;;16.30;99.90;;;;;;6187186;23;20209;-83
2021/10/27 17:10:54;;;;;;;8.77;4.63;;;16.30;99.90;;;;;;6160323;23;20149;-82
2021/10/27 17:13:22;;;;;;;6.97;4.83;;;16.30;99.90;;;;;;6160719;23;20227;-82
2021/10/27 17:15:49;;;;;;;8.67;4.50;;;16.20;99.90;;;;;;6160413;23;20602;-82
2021/10/27 17:18:15;;;;;;;11.67;4.77;;;16.20;99.90;;;;;;6160652;23;20172;-83
2021/10/27 17:20:44;;;;;;;8.90;4.90;;;16.20;99.90;;;;;;6160593;23;20156;-86
2021/10/27 17:23:16;;;;;;;11.07;4.80;;;16.20;99.90;;;;;;6160698;23;20187;-88
2021/10/27 17:25:42;;;;;;;9.23;5.03;;;16.10;99.90;;;;;;6160238;23;20284;-86
2021/10/27 17:28:07;;;;;;;13.47;5.60;;;16.00;99.90;;;;;;6160665;23;20590;-83
2021/10/27 17:30:36;;;;;;;12.00;5.43;;;16.00;99.90;;;;;;6160594;23;20224;-83
2021/10/27 17:33:05;;;;;;;11.03;4.70;;;16.10;99.90;;;;;;6160580;23;20150;-82
2021/10/27 17:35:31;;;;;;;10.83;6.77;;;16.20;99.90;;;;;;6160472;23;20574;-82
2021/10/27 17:37:56;;;;;;;8.63;6.77;;;16.20;99.90;;;;;;6160426;23;20145;-84
2021/10/27 17:40:34;;;;;;;11.57;8.93;;;16.20;99.90;;;;;;6160134;23;20158;-83
2021/10/27 17:43:01;;;;;;;8.37;5.33;;;16.20;99.90;;;;;;6160283;23;20185;-83
2021/10/27 17:45:37;;;;;;;11.43;5.60;;;16.20;99.90;;;;;;6159910;23;20158;-82
2021/10/27 17:48:15;;;;;;;7.17;5.10;;;16.10;99.90;;;;;;6160249;23;20152;-83
2021/10/27 17:58:44;;;;;;;10.37;5.90;;;15.90;99.90;;;;;;6186589;23;20168;-83
2021/10/27 18:01:12;;;;;;;12.70;7.90;;;15.80;99.90;;;;;;6160149;23;20142;-83
2021/10/27 18:03:41;;;;;;;14.73;10.10;;;15.80;99.90;;;;;;6159936;23;20195;-82
2021/10/27 18:06:09;;;;;;;13.40;7.00;;;15.80;99.90;;;;;;6159588;23;20179;-83
2021/10/27 18:08:37;;;;;;;10.10;5.97;;;15.90;99.90;;;;;;6159769;23;20483;-83
2021/10/27 18:11:07;;;;;;;12.23;6.23;;;16.00;99.90;;;;;;6159827;23;20437;-82
2021/10/27 18:13:37;;;;;;;11.70;6.83;;;15.90;99.90;;;;;;6159939;23;20626;-83
2021/10/27 18:16:28;;;;;;;8.73;6.33;;;15.80;99.90;;;;;;6159856;23;20154;-83
2021/10/27 18:37:32;;;;;;;14.07;8.33;;;15.50;99.90;;;;;;6185432;23;20173;-83
2021/10/27 18:42:39;;;;;;;12.97;7.47;;;15.30;99.90;;;;;;6196051;23;20181;-82
2021/10/27 18:45:07;;;;;;;10.37;7.07;;;15.30;99.90;;;;;;6160059;23;20149;-84
2021/10/27 18:47:37;;;;;;;11.13;7.77;;;15.30;99.90;;;;;;6159488;23;20150;-83
2021/10/27 18:50:06;;;;;;;9.93;7.03;;;15.30;99.90;;;;;;6159848;23;20567;-83